sensor_id;sensor_type;location;lat;lon;timestamp;pressure;altitude;pressure_sealevel;temperature;humidity
43711;BME280;29309;42.682;23.372;2022-09-09T00:01:54;95436.56;;;19.87;59.96
43711;BME280;29309;42.682;23.372;2022-09-09T00:04:29;95433.16;;;19.92;60.34
43711;BME280;29309;42.682;23.372;2022-09-09T00:07:18;95429.72;;;19.98;59.90
43711;BME280;29309;42.682;23.372;2022-09-09T00:09:53;95431.81;;;19.95;59.68
43711;BME280;29309;42.682;23.372;2022-09-09T00:15:18;95429.94;;;20.10;60.37
43711;BME280;29309;42.682;23.372;2022-09-09T00:18:31;95429.41;;;20.20;61.32
43711;BME280;29309;42.682;23.372;2022-09-09T00:20:49;95431.72;;;19.91;62.16
43711;BME280;29309;42.682;23.372;2022-09-09T00:23:27;95427.94;;;19.77;62.91
43711;BME280;29309;42.682;23.372;2022-09-09T00:28:43;95407.78;;;19.18;64.99
43711;BME280;29309;42.682;23.372;2022-09-09T00:31:14;95403.69;;;19.24;65.19
43711;BME280;29309;42.682;23.372;2022-09-09T00:33:42;95401.06;;;19.34;64.64
43711;BME280;29309;42.682;23.372;2022-09-09T00:36:18;95403.97;;;19.40;64.37
43711;BME280;29309;42.682;23.372;2022-09-09T00:38:56;95399.75;;;19.39;64.56
43711;BME280;29309;42.682;23.372;2022-09-09T00:44:23;95394.00;;;19.33;64.54
43711;BME280;29309;42.682;23.372;2022-09-09T00:50:00;95388.41;;;19.35;63.48
43711;BME280;29309;42.682;23.372;2022-09-09T00:52:39;95395.94;;;19.24;63.20
43711;BME280;29309;42.682;23.372;2022-09-09T00:55:49;95400.13;;;18.87;64.26
43711;BME280;29309;42.682;23.372;2022-09-09T00:58:18;95393.69;;;18.83;64.26
43711;BME280;29309;42.682;23.372;2022-09-09T01:01:04;95401.53;;;18.56;65.10
43711;BME280;29309;42.682;23.372;2022-09-09T01:03:48;95387.94;;;18.77;64.66
43711;BME280;29309;42.682;23.372;2022-09-09T01:11:45;95384.66;;;18.56;65.33
43711;BME280;29309;42.682;23.372;2022-09-09T01:16:59;95392.09;;;18.44;65.83
43711;BME280;29309;42.682;23.372;2022-09-09T01:27:31;95394.56;;;18.59;65.66
43711;BME280;29309;42.682;23.372;2022-09-09T01:29:58;95398.00;;;18.56;65.45
43711;BME280;29309;42.682;23.372;2022-09-09T01:32:42;95395.25;;;18.58;65.78
43711;BME280;29309;42.682;23.372;2022-09-09T01:37:47;95389.97;;;18.74;64.95
43711;BME280;29309;42.682;23.372;2022-09-09T01:40:14;95399.81;;;18.73;64.88
43711;BME280;29309;42.682;23.372;2022-09-09T01:42:40;95407.03;;;18.82;65.15
43711;BME280;29309;42.682;23.372;2022-09-09T01:45:06;95404.34;;;18.88;64.82
43711;BME280;29309;42.682;23.372;2022-09-09T01:47:32;95407.16;;;18.88;64.81
43711;BME280;29309;42.682;23.372;2022-09-09T01:49:58;95407.38;;;18.98;64.78
43711;BME280;29309;42.682;23.372;2022-09-09T01:52:24;95409.81;;;19.14;63.58
43711;BME280;29309;42.682;23.372;2022-09-09T01:54:49;95410.41;;;19.08;64.14
43711;BME280;29309;42.682;23.372;2022-09-09T01:57:32;95419.41;;;19.03;64.35
43711;BME280;29309;42.682;23.372;2022-09-09T02:00:12;95419.94;;;18.93;64.53
43711;BME280;29309;42.682;23.372;2022-09-09T02:07:49;95406.06;;;19.03;64.34
43711;BME280;29309;42.682;23.372;2022-09-09T02:10:26;95410.91;;;18.99;64.69
43711;BME280;29309;42.682;23.372;2022-09-09T02:13:14;95400.94;;;18.94;64.75
43711;BME280;29309;42.682;23.372;2022-09-09T02:16:12;95406.66;;;18.98;64.83
43711;BME280;29309;42.682;23.372;2022-09-09T02:18:48;95395.28;;;18.92;64.92
43711;BME280;29309;42.682;23.372;2022-09-09T02:21:15;95391.25;;;19.01;64.40
43711;BME280;29309;42.682;23.372;2022-09-09T02:23:42;95388.34;;;18.97;64.84
43711;BME280;29309;42.682;23.372;2022-09-09T02:26:12;95384.63;;;18.86;64.91
43711;BME280;29309;42.682;23.372;2022-09-09T02:28:45;95385.84;;;18.77;64.45
43711;BME280;29309;42.682;23.372;2022-09-09T02:31:13;95400.81;;;18.56;64.85
43711;BME280;29309;42.682;23.372;2022-09-09T02:33:44;95399.16;;;18.45;65.54
43711;BME280;29309;42.682;23.372;2022-09-09T02:36:12;95404.53;;;18.64;65.34
43711;BME280;29309;42.682;23.372;2022-09-09T02:38:45;95402.34;;;18.61;65.13
43711;BME280;29309;42.682;23.372;2022-09-09T02:41:19;95398.94;;;18.66;65.68
43711;BME280;29309;42.682;23.372;2022-09-09T02:43:46;95406.63;;;18.64;65.75
43711;BME280;29309;42.682;23.372;2022-09-09T02:49:11;95419.25;;;18.63;65.29
43711;BME280;29309;42.682;23.372;2022-09-09T02:56:49;95413.72;;;18.67;65.58
43711;BME280;29309;42.682;23.372;2022-09-09T02:59:18;95420.34;;;18.80;64.87
43711;BME280;29309;42.682;23.372;2022-09-09T03:01:43;95416.84;;;18.81;64.50
43711;BME280;29309;42.682;23.372;2022-09-09T03:04:10;95404.00;;;18.72;64.77
43711;BME280;29309;42.682;23.372;2022-09-09T03:06:35;95409.59;;;18.70;64.93
43711;BME280;29309;42.682;23.372;2022-09-09T03:09:01;95410.81;;;18.63;65.03
43711;BME280;29309;42.682;23.372;2022-09-09T03:11:27;95420.88;;;18.72;64.83
43711;BME280;29309;42.682;23.372;2022-09-09T03:13:54;95422.13;;;18.65;64.95
43711;BME280;29309;42.682;23.372;2022-09-09T03:16:24;95412.34;;;18.68;64.70
43711;BME280;29309;42.682;23.372;2022-09-09T03:18:50;95413.00;;;18.66;64.68
43711;BME280;29309;42.682;23.372;2022-09-09T03:21:15;95418.63;;;18.66;65.03
43711;BME280;29309;42.682;23.372;2022-09-09T03:23:41;95410.97;;;18.69;64.85
43711;BME280;29309;42.682;23.372;2022-09-09T03:26:07;95411.22;;;18.81;64.16
43711;BME280;29309;42.682;23.372;2022-09-09T03:28:32;95406.53;;;18.60;64.63
43711;BME280;29309;42.682;23.372;2022-09-09T03:31:04;95420.44;;;18.52;65.03
43711;BME280;29309;42.682;23.372;2022-09-09T03:33:29;95416.94;;;18.53;65.40
43711;BME280;29309;42.682;23.372;2022-09-09T03:35:56;95418.38;;;18.54;65.25
43711;BME280;29309;42.682;23.372;2022-09-09T03:38:24;95421.66;;;18.45;65.20
43711;BME280;29309;42.682;23.372;2022-09-09T03:40:52;95418.03;;;18.40;65.60
43711;BME280;29309;42.682;23.372;2022-09-09T03:43:21;95410.94;;;18.37;65.57
43711;BME280;29309;42.682;23.372;2022-09-09T03:45:46;95410.75;;;18.31;65.72
43711;BME280;29309;42.682;23.372;2022-09-09T03:48:16;95415.84;;;18.37;65.54
43711;BME280;29309;42.682;23.372;2022-09-09T03:50:52;95417.41;;;18.44;65.74
43711;BME280;29309;42.682;23.372;2022-09-09T03:53:18;95419.41;;;18.39;65.64
43711;BME280;29309;42.682;23.372;2022-09-09T03:55:49;95430.97;;;18.24;66.12
43711;BME280;29309;42.682;23.372;2022-09-09T03:58:16;95428.34;;;18.32;66.20
43711;BME280;29309;42.682;23.372;2022-09-09T04:00:43;95422.81;;;18.36;65.76
43711;BME280;29309;42.682;23.372;2022-09-09T04:03:10;95423.69;;;18.42;65.67
43711;BME280;29309;42.682;23.372;2022-09-09T04:05:38;95424.38;;;18.41;65.31
43711;BME280;29309;42.682;23.372;2022-09-09T04:08:08;95426.84;;;18.27;65.23
43711;BME280;29309;42.682;23.372;2022-09-09T04:10:34;95427.19;;;18.13;65.61
43711;BME280;29309;42.682;23.372;2022-09-09T04:13:01;95425.25;;;18.19;65.69
43711;BME280;29309;42.682;23.372;2022-09-09T04:15:27;95431.25;;;18.36;65.40
43711;BME280;29309;42.682;23.372;2022-09-09T04:17:53;95430.53;;;18.35;64.46
43711;BME280;29309;42.682;23.372;2022-09-09T04:20:18;95418.78;;;18.43;63.81
43711;BME280;29309;42.682;23.372;2022-09-09T04:22:44;95418.16;;;18.46;64.26
43711;BME280;29309;42.682;23.372;2022-09-09T04:25:10;95420.44;;;18.52;63.90
43711;BME280;29309;42.682;23.372;2022-09-09T04:27:35;95419.53;;;18.45;63.85
43711;BME280;29309;42.682;23.372;2022-09-09T04:30:01;95424.97;;;18.37;64.50
43711;BME280;29309;42.682;23.372;2022-09-09T04:32:26;95410.09;;;18.33;63.61
43711;BME280;29309;42.682;23.372;2022-09-09T04:34:52;95421.56;;;18.41;63.07
43711;BME280;29309;42.682;23.372;2022-09-09T04:37:18;95428.66;;;18.44;63.23
43711;BME280;29309;42.682;23.372;2022-09-09T04:39:43;95429.09;;;18.34;63.25
43711;BME280;29309;42.682;23.372;2022-09-09T04:42:09;95430.34;;;18.27;63.94
43711;BME280;29309;42.682;23.372;2022-09-09T04:44:35;95422.44;;;18.19;63.63
43711;BME280;29309;42.682;23.372;2022-09-09T04:47:01;95431.03;;;18.26;64.28
43711;BME280;29309;42.682;23.372;2022-09-09T04:49:26;95429.47;;;18.20;64.17
43711;BME280;29309;42.682;23.372;2022-09-09T04:51:52;95423.22;;;18.22;64.11
43711;BME280;29309;42.682;23.372;2022-09-09T04:54:18;95416.97;;;18.26;64.16
43711;BME280;29309;42.682;23.372;2022-09-09T04:56:43;95415.44;;;18.20;64.17
43711;BME280;29309;42.682;23.372;2022-09-09T04:59:09;95416.22;;;18.23;64.32
43711;BME280;29309;42.682;23.372;2022-09-09T05:01:35;95416.44;;;18.33;64.42
43711;BME280;29309;42.682;23.372;2022-09-09T05:04:02;95419.34;;;18.37;64.42
43711;BME280;29309;42.682;23.372;2022-09-09T05:06:28;95419.50;;;18.43;64.50
43711;BME280;29309;42.682;23.372;2022-09-09T05:08:56;95413.28;;;18.49;64.44
43711;BME280;29309;42.682;23.372;2022-09-09T05:11:25;95390.75;;;18.47;64.54
43711;BME280;29309;42.682;23.372;2022-09-09T05:13:51;95398.09;;;18.60;64.25
43711;BME280;29309;42.682;23.372;2022-09-09T05:16:18;95403.91;;;18.68;64.24
43711;BME280;29309;42.682;23.372;2022-09-09T05:18:44;95402.63;;;18.73;63.80
43711;BME280;29309;42.682;23.372;2022-09-09T05:21:12;95406.22;;;18.78;63.71
43711;BME280;29309;42.682;23.372;2022-09-09T05:23:38;95411.31;;;18.85;64.21
43711;BME280;29309;42.682;23.372;2022-09-09T05:26:04;95405.09;;;18.91;64.11
43711;BME280;29309;42.682;23.372;2022-09-09T05:28:30;95404.47;;;18.94;63.72
43711;BME280;29309;42.682;23.372;2022-09-09T05:31:00;95401.22;;;19.06;63.77
43711;BME280;29309;42.682;23.372;2022-09-09T05:33:29;95402.41;;;19.31;63.29
43711;BME280;29309;42.682;23.372;2022-09-09T05:35:59;95394.13;;;19.39;62.88
43711;BME280;29309;42.682;23.372;2022-09-09T05:38:25;95397.78;;;19.45;62.28
43711;BME280;29309;42.682;23.372;2022-09-09T05:40:51;95395.06;;;19.49;62.18
43711;BME280;29309;42.682;23.372;2022-09-09T05:43:18;95403.72;;;19.61;62.41
43711;BME280;29309;42.682;23.372;2022-09-09T05:45:48;95401.69;;;19.66;62.53
43711;BME280;29309;42.682;23.372;2022-09-09T05:48:16;95410.31;;;19.74;61.91
43711;BME280;29309;42.682;23.372;2022-09-09T05:50:42;95412.94;;;20.04;59.78
43711;BME280;29309;42.682;23.372;2022-09-09T05:53:08;95413.13;;;20.16;58.82
43711;BME280;29309;42.682;23.372;2022-09-09T05:55:35;95404.59;;;20.12;58.81
43711;BME280;29309;42.682;23.372;2022-09-09T05:58:00;95402.88;;;20.33;56.66
43711;BME280;29309;42.682;23.372;2022-09-09T06:00:26;95412.59;;;20.26;55.32
43711;BME280;29309;42.682;23.372;2022-09-09T06:02:52;95409.72;;;20.24;55.39
43711;BME280;29309;42.682;23.372;2022-09-09T06:05:19;95406.03;;;20.13;56.11
43711;BME280;29309;42.682;23.372;2022-09-09T06:07:44;95414.47;;;20.11;56.71
43711;BME280;29309;42.682;23.372;2022-09-09T06:10:11;95421.81;;;20.28;56.70
43711;BME280;29309;42.682;23.372;2022-09-09T06:12:39;95426.41;;;20.51;56.57
43711;BME280;29309;42.682;23.372;2022-09-09T06:15:08;95411.25;;;20.75;53.52
43711;BME280;29309;42.682;23.372;2022-09-09T06:17:34;95430.19;;;21.16;52.09
43711;BME280;29309;42.682;23.372;2022-09-09T06:20:00;95419.91;;;21.43;50.76
43711;BME280;29309;42.682;23.372;2022-09-09T06:22:25;95422.88;;;21.55;50.84
43711;BME280;29309;42.682;23.372;2022-09-09T06:24:50;95413.38;;;21.90;50.40
43711;BME280;29309;42.682;23.372;2022-09-09T06:27:16;95426.50;;;22.36;48.55
43711;BME280;29309;42.682;23.372;2022-09-09T06:29:41;95431.09;;;22.77;46.69
43711;BME280;29309;42.682;23.372;2022-09-09T06:32:07;95434.81;;;23.08;46.13
43711;BME280;29309;42.682;23.372;2022-09-09T06:34:33;95424.28;;;23.27;45.73
43711;BME280;29309;42.682;23.372;2022-09-09T06:36:59;95415.28;;;23.65;45.39
43711;BME280;29309;42.682;23.372;2022-09-09T06:41:19;95413.16;;;23.69;47.26
43711;BME280;29309;42.682;23.372;2022-09-09T06:43:48;95414.63;;;23.96;44.34
43711;BME280;29309;42.682;23.372;2022-09-09T06:46:19;95411.16;;;24.26;44.72
43711;BME280;29309;42.682;23.372;2022-09-09T06:48:45;95404.75;;;24.28;42.76
43711;BME280;29309;42.682;23.372;2022-09-09T06:51:14;95413.25;;;24.64;42.30
43711;BME280;29309;42.682;23.372;2022-09-09T06:53:41;95414.69;;;24.77;42.08
43711;BME280;29309;42.682;23.372;2022-09-09T06:58:42;95419.50;;;25.45;41.32
43711;BME280;29309;42.682;23.372;2022-09-09T07:01:16;95412.28;;;25.73;40.79
43711;BME280;29309;42.682;23.372;2022-09-09T07:03:42;95415.69;;;26.00;40.44
43711;BME280;29309;42.682;23.372;2022-09-09T07:06:14;95411.34;;;26.13;39.55
43711;BME280;29309;42.682;23.372;2022-09-09T07:08:40;95427.50;;;26.42;38.74
43711;BME280;29309;42.682;23.372;2022-09-09T07:11:07;95419.63;;;26.51;38.78
43711;BME280;29309;42.682;23.372;2022-09-09T07:13:34;95405.84;;;26.78;38.90
43711;BME280;29309;42.682;23.372;2022-09-09T07:16:11;95404.28;;;26.97;37.56
43711;BME280;29309;42.682;23.372;2022-09-09T07:18:37;95397.00;;;27.12;37.62
43711;BME280;29309;42.682;23.372;2022-09-09T07:21:03;95413.56;;;26.94;36.62
43711;BME280;29309;42.682;23.372;2022-09-09T07:23:29;95410.78;;;26.87;36.35
43711;BME280;29309;42.682;23.372;2022-09-09T07:25:57;95402.69;;;27.12;36.91
43711;BME280;29309;42.682;23.372;2022-09-09T07:28:23;95404.47;;;27.42;36.96
43711;BME280;29309;42.682;23.372;2022-09-09T07:30:56;95409.56;;;27.93;36.51
43711;BME280;29309;42.682;23.372;2022-09-09T07:33:23;95401.22;;;28.27;36.30
43711;BME280;29309;42.682;23.372;2022-09-09T07:35:50;95409.28;;;28.60;34.10
43711;BME280;29309;42.682;23.372;2022-09-09T07:38:16;95393.38;;;28.73;34.58
43711;BME280;29309;42.682;23.372;2022-09-09T07:40:41;95380.94;;;28.89;35.06
43711;BME280;29309;42.682;23.372;2022-09-09T07:43:07;95387.97;;;28.96;32.33
43711;BME280;29309;42.682;23.372;2022-09-09T07:45:34;95389.47;;;28.91;33.29
43711;BME280;29309;42.682;23.372;2022-09-09T07:48:04;95409.16;;;29.09;32.78
43711;BME280;29309;42.682;23.372;2022-09-09T07:50:30;95396.88;;;28.77;33.55
43711;BME280;29309;42.682;23.372;2022-09-09T07:52:56;95401.66;;;28.46;34.11
43711;BME280;29309;42.682;23.372;2022-09-09T07:55:22;95402.44;;;28.86;33.46
43711;BME280;29309;42.682;23.372;2022-09-09T07:57:53;95388.00;;;28.94;32.59
43711;BME280;29309;42.682;23.372;2022-09-09T08:00:18;95391.53;;;28.96;33.21
43711;BME280;29309;42.682;23.372;2022-09-09T08:02:44;95391.69;;;29.25;33.76
43711;BME280;29309;42.682;23.372;2022-09-09T08:05:11;95375.03;;;29.38;32.63
43711;BME280;29309;42.682;23.372;2022-09-09T08:07:38;95383.56;;;29.40;32.07
43711;BME280;29309;42.682;23.372;2022-09-09T08:10:04;95398.75;;;29.32;32.28
43711;BME280;29309;42.682;23.372;2022-09-09T08:12:32;95395.28;;;29.62;32.12
43711;BME280;29309;42.682;23.372;2022-09-09T08:14:58;95370.59;;;29.77;31.90
43711;BME280;29309;42.682;23.372;2022-09-09T08:17:24;95394.25;;;29.41;32.22
43711;BME280;29309;42.682;23.372;2022-09-09T08:19:49;95385.28;;;28.86;33.74
43711;BME280;29309;42.682;23.372;2022-09-09T08:22:14;95401.09;;;28.80;33.79
43711;BME280;29309;42.682;23.372;2022-09-09T08:24:40;95384.75;;;28.32;34.81
43711;BME280;29309;42.682;23.372;2022-09-09T08:27:06;95391.03;;;28.83;34.49
43711;BME280;29309;42.682;23.372;2022-09-09T08:29:31;95391.03;;;28.83;33.72
43711;BME280;29309;42.682;23.372;2022-09-09T08:31:57;95389.84;;;29.09;34.07
43711;BME280;29309;42.682;23.372;2022-09-09T08:34:24;95389.84;;;29.48;34.07
43711;BME280;29309;42.682;23.372;2022-09-09T08:36:52;95384.97;;;29.75;33.17
43711;BME280;29309;42.682;23.372;2022-09-09T08:39:20;95382.34;;;29.63;33.40
43711;BME280;29309;42.682;23.372;2022-09-09T08:50:16;95384.88;;;29.08;34.42
43711;BME280;29309;42.682;23.372;2022-09-09T08:55:56;95380.19;;;28.47;34.64
43711;BME280;29309;42.682;23.372;2022-09-09T08:58:35;95373.72;;;28.51;34.25
43711;BME280;29309;42.682;23.372;2022-09-09T09:09:26;95377.28;;;28.04;35.80
43711;BME280;29309;42.682;23.372;2022-09-09T09:12:20;95376.16;;;27.85;36.33
43711;BME280;29309;42.682;23.372;2022-09-09T09:14:48;95374.53;;;27.98;35.83
43711;BME280;29309;42.682;23.372;2022-09-09T09:17:21;95367.41;;;27.97;36.03
43711;BME280;29309;42.682;23.372;2022-09-09T09:19:49;95380.91;;;28.48;35.18
43711;BME280;29309;42.682;23.372;2022-09-09T09:24:54;95372.16;;;29.01;33.98
43711;BME280;29309;42.682;23.372;2022-09-09T09:27:36;95366.25;;;29.09;33.85
43711;BME280;29309;42.682;23.372;2022-09-09T09:30:25;95369.00;;;28.76;33.85
43711;BME280;29309;42.682;23.372;2022-09-09T09:32:55;95370.38;;;28.38;35.18
43711;BME280;29309;42.682;23.372;2022-09-09T09:35:21;95365.91;;;28.49;35.22
43711;BME280;29309;42.682;23.372;2022-09-09T09:37:47;95376.41;;;28.18;34.57
43711;BME280;29309;42.682;23.372;2022-09-09T09:40:16;95371.00;;;27.96;35.66
43711;BME280;29309;42.682;23.372;2022-09-09T09:42:52;95359.63;;;27.92;35.80
43711;BME280;29309;42.682;23.372;2022-09-09T09:48:05;95351.97;;;27.80;36.71
43711;BME280;29309;42.682;23.372;2022-09-09T09:50:32;95339.63;;;27.94;36.85
43711;BME280;29309;42.682;23.372;2022-09-09T09:53:03;95352.25;;;27.58;36.58
43711;BME280;29309;42.682;23.372;2022-09-09T09:55:33;95346.97;;;27.80;35.97
43711;BME280;29309;42.682;23.372;2022-09-09T09:58:02;95345.25;;;28.00;35.87
43711;BME280;29309;42.682;23.372;2022-09-09T10:00:28;95337.16;;;28.16;36.07
43711;BME280;29309;42.682;23.372;2022-09-09T10:02:54;95341.97;;;28.28;35.61
43711;BME280;29309;42.682;23.372;2022-09-09T10:05:29;95341.97;;;28.28;35.64
43711;BME280;29309;42.682;23.372;2022-09-09T10:08:03;95335.63;;;28.23;34.99
43711;BME280;29309;42.682;23.372;2022-09-09T10:16:57;95351.56;;;27.57;36.46
43711;BME280;29309;42.682;23.372;2022-09-09T10:19:32;95356.41;;;27.08;37.63
43711;BME280;29309;42.682;23.372;2022-09-09T10:22:20;95359.91;;;27.16;37.60
43711;BME280;29309;42.682;23.372;2022-09-09T10:33:10;95360.56;;;27.19;38.17
43711;BME280;29309;42.682;23.372;2022-09-09T10:36:02;95355.59;;;27.17;38.28
43711;BME280;29309;42.682;23.372;2022-09-09T10:38:45;95358.44;;;27.19;38.56
43711;BME280;29309;42.682;23.372;2022-09-09T10:49:08;95366.81;;;27.31;38.33
43711;BME280;29309;42.682;23.372;2022-09-09T10:54:25;95368.09;;;27.45;38.63
43711;BME280;29309;42.682;23.372;2022-09-09T10:57:54;95364.63;;;27.38;39.12
43711;BME280;29309;42.682;23.372;2022-09-09T11:00:15;95349.72;;;27.31;39.28
43711;BME280;29309;42.682;23.372;2022-09-09T11:02:41;95339.72;;;27.32;39.31
43711;BME280;29309;42.682;23.372;2022-09-09T11:05:20;95353.13;;;27.46;38.95
43711;BME280;29309;42.682;23.372;2022-09-09T11:08:19;95360.28;;;27.45;38.98
43711;BME280;29309;42.682;23.372;2022-09-09T11:13:34;95360.44;;;27.31;39.50
43711;BME280;29309;42.682;23.372;2022-09-09T11:16:28;95364.84;;;27.18;39.96
43711;BME280;29309;42.682;23.372;2022-09-09T11:21:46;95352.00;;;27.19;39.93
43711;BME280;29309;42.682;23.372;2022-09-09T11:24:33;95351.31;;;27.18;40.13
43711;BME280;29309;42.682;23.372;2022-09-09T11:32:34;95333.97;;;27.36;40.00
43711;BME280;29309;42.682;23.372;2022-09-09T11:35:23;95320.41;;;27.39;40.28
43711;BME280;29309;42.682;23.372;2022-09-09T11:40:26;95320.66;;;27.19;39.67
43711;BME280;29309;42.682;23.372;2022-09-09T11:43:02;95307.75;;;27.26;39.75
43711;BME280;29309;42.682;23.372;2022-09-09T11:45:31;95297.06;;;27.24;40.10
43711;BME280;29309;42.682;23.372;2022-09-09T11:48:00;95292.09;;;27.23;40.43
43711;BME280;29309;42.682;23.372;2022-09-09T11:50:27;95287.41;;;27.01;40.78
43711;BME280;29309;42.682;23.372;2022-09-09T11:53:21;95286.28;;;26.72;41.15
43711;BME280;29309;42.682;23.372;2022-09-09T11:56:29;95267.22;;;26.58;41.40
43711;BME280;29309;42.682;23.372;2022-09-09T12:04:14;95271.69;;;27.04;41.59
43711;BME280;29309;42.682;23.372;2022-09-09T12:06:48;95277.06;;;27.28;41.21
43711;BME280;29309;42.682;23.372;2022-09-09T12:09:27;95284.56;;;27.54;40.45
43711;BME280;29309;42.682;23.372;2022-09-09T12:12:20;95284.59;;;27.99;39.69
43711;BME280;29309;42.682;23.372;2022-09-09T12:17:46;95262.88;;;28.20;38.79
43711;BME280;29309;42.682;23.372;2022-09-09T12:20:22;95264.66;;;27.97;39.19
43711;BME280;29309;42.682;23.372;2022-09-09T12:27:55;95260.41;;;27.49;39.94
43711;BME280;29309;42.682;23.372;2022-09-09T12:30:31;95259.75;;;27.45;40.55
43711;BME280;29309;42.682;23.372;2022-09-09T12:33:10;95254.81;;;27.41;40.82
43711;BME280;29309;42.682;23.372;2022-09-09T12:35:37;95250.56;;;27.38;40.47
43711;BME280;29309;42.682;23.372;2022-09-09T12:38:04;95234.34;;;27.24;40.75
43711;BME280;29309;42.682;23.372;2022-09-09T12:40:36;95238.38;;;27.46;40.68
43711;BME280;29309;42.682;23.372;2022-09-09T12:43:17;95241.06;;;27.56;40.65
43711;BME280;29309;42.682;23.372;2022-09-09T12:45:42;95221.78;;;27.58;40.53
43711;BME280;29309;42.682;23.372;2022-09-09T12:48:09;95225.88;;;27.69;40.84
43711;BME280;29309;42.682;23.372;2022-09-09T12:50:46;95231.75;;;27.59;41.22
43711;BME280;29309;42.682;23.372;2022-09-09T12:53:24;95227.69;;;27.42;41.63
43711;BME280;29309;42.682;23.372;2022-09-09T12:55:57;95228.59;;;27.30;41.94
43711;BME280;29309;42.682;23.372;2022-09-09T12:58:24;95224.88;;;27.40;41.98
43711;BME280;29309;42.682;23.372;2022-09-09T13:00:53;95228.06;;;27.16;42.23
43711;BME280;29309;42.682;23.372;2022-09-09T13:03:21;95218.06;;;27.19;42.30
43711;BME280;29309;42.682;23.372;2022-09-09T13:05:47;95221.59;;;27.19;42.56
43711;BME280;29309;42.682;23.372;2022-09-09T13:08:15;95221.28;;;26.88;42.90
43711;BME280;29309;42.682;23.372;2022-09-09T13:10:50;95212.78;;;26.86;43.41
43711;BME280;29309;42.682;23.372;2022-09-09T13:13:25;95207.06;;;26.88;43.26
43711;BME280;29309;42.682;23.372;2022-09-09T13:15:54;95203.84;;;26.58;43.87
43711;BME280;29309;42.682;23.372;2022-09-09T13:18:23;95201.81;;;26.48;43.88
43711;BME280;29309;42.682;23.372;2022-09-09T13:20:49;95214.31;;;26.75;43.73
43711;BME280;29309;42.682;23.372;2022-09-09T13:23:16;95206.13;;;27.04;42.87
43711;BME280;29309;42.682;23.372;2022-09-09T13:25:59;95202.47;;;27.10;42.90
43711;BME280;29309;42.682;23.372;2022-09-09T13:28:27;95208.63;;;27.28;42.12
43711;BME280;29309;42.682;23.372;2022-09-09T13:31:01;95192.22;;;27.31;43.04
43711;BME280;29309;42.682;23.372;2022-09-09T13:33:31;95190.69;;;27.38;42.74
43711;BME280;29309;42.682;23.372;2022-09-09T13:38:24;95198.13;;;27.64;42.35
43711;BME280;29309;42.682;23.372;2022-09-09T13:40:54;95181.84;;;27.58;42.76
43711;BME280;29309;42.682;23.372;2022-09-09T13:43:23;95191.06;;;27.61;42.38
43711;BME280;29309;42.682;23.372;2022-09-09T13:46:02;95185.97;;;27.67;42.22
43711;BME280;29309;42.682;23.372;2022-09-09T13:48:28;95174.66;;;27.61;42.09
43711;BME280;29309;42.682;23.372;2022-09-09T13:51:03;95181.06;;;27.62;42.03
43711;BME280;29309;42.682;23.372;2022-09-09T13:53:32;95172.47;;;27.17;43.00
43711;BME280;29309;42.682;23.372;2022-09-09T13:55:59;95165.25;;;27.24;42.72
43711;BME280;29309;42.682;23.372;2022-09-09T13:58:25;95167.41;;;27.21;42.53
43711;BME280;29309;42.682;23.372;2022-09-09T14:00:52;95176.75;;;27.16;42.97
43711;BME280;29309;42.682;23.372;2022-09-09T14:03:18;95160.06;;;26.87;43.54
43711;BME280;29309;42.682;23.372;2022-09-09T14:05:44;95171.38;;;26.94;43.68
43711;BME280;29309;42.682;23.372;2022-09-09T14:08:16;95171.25;;;26.47;44.62
43711;BME280;29309;42.682;23.372;2022-09-09T14:10:45;95173.25;;;26.58;44.37
43711;BME280;29309;42.682;23.372;2022-09-09T14:13:10;95166.84;;;26.58;44.10
43711;BME280;29309;42.682;23.372;2022-09-09T14:15:37;95157.63;;;26.55;44.17
43711;BME280;29309;42.682;23.372;2022-09-09T14:18:03;95160.56;;;26.47;44.50
43711;BME280;29309;42.682;23.372;2022-09-09T14:20:28;95160.41;;;26.59;43.94
43711;BME280;29309;42.682;23.372;2022-09-09T14:22:54;95164.00;;;26.56;44.33
43711;BME280;29309;42.682;23.372;2022-09-09T14:25:19;95160.16;;;26.77;43.53
43711;BME280;29309;42.682;23.372;2022-09-09T14:27:45;95157.44;;;26.67;43.18
43711;BME280;29309;42.682;23.372;2022-09-09T14:30:11;95148.81;;;26.73;43.88
43711;BME280;29309;42.682;23.372;2022-09-09T14:32:37;95143.25;;;26.65;43.77
43711;BME280;29309;42.682;23.372;2022-09-09T14:35:03;95149.19;;;26.45;44.48
43711;BME280;29309;42.682;23.372;2022-09-09T14:37:28;95147.69;;;26.52;43.92
43711;BME280;29309;42.682;23.372;2022-09-09T14:39:55;95155.94;;;26.74;42.80
43711;BME280;29309;42.682;23.372;2022-09-09T14:42:21;95143.25;;;26.65;43.71
43711;BME280;29309;42.682;23.372;2022-09-09T14:44:50;95140.53;;;26.55;43.78
43711;BME280;29309;42.682;23.372;2022-09-09T14:47:15;95142.50;;;26.67;43.42
43711;BME280;29309;42.682;23.372;2022-09-09T14:49:41;95141.22;;;26.56;43.68
43711;BME280;29309;42.682;23.372;2022-09-09T14:52:06;95144.59;;;26.70;43.45
43711;BME280;29309;42.682;23.372;2022-09-09T14:54:36;95141.25;;;26.54;43.67
43711;BME280;29309;42.682;23.372;2022-09-09T14:57:02;95143.50;;;26.45;44.36
43711;BME280;29309;42.682;23.372;2022-09-09T14:59:28;95140.59;;;26.51;44.02
43711;BME280;29309;42.682;23.372;2022-09-09T15:01:53;95136.09;;;26.68;43.13
43711;BME280;29309;42.682;23.372;2022-09-09T15:04:19;95137.03;;;26.49;43.97
43711;BME280;29309;42.682;23.372;2022-09-09T15:06:45;95143.56;;;26.39;44.64
43711;BME280;29309;42.682;23.372;2022-09-09T15:09:13;95156.38;;;26.38;44.72
43711;BME280;29309;42.682;23.372;2022-09-09T15:11:39;95140.09;;;26.30;44.62
43711;BME280;29309;42.682;23.372;2022-09-09T15:14:06;95152.06;;;26.43;44.34